CheckWX is a tool to help pilots better visualize weather data.  It is not intended as a substitute for an official pre-flight weather briefing.

06:54:11 UTC

KBVY METAR
Beverly Regional Airport
Beverly, Massachusetts, USA
Current

1 hour ago

KBVY 270553Z AUTO 00000KT 10SM CLR 16/14 A3018 RMK AO2 SLP214 T01610144 10172 20150 51004
Observed
May-27 @ 05:53 UTC
Visibility
Flight Rules
VFR
Cloud Levels
  • Clear skies
Temperature
16°C / 61°F
Dewpoint
14°C / 57°F
Humidity
88%
Altimeter
30.18" Hg
Pressure
1022.02 hPa
Previous

2 hours ago

KBVY 270453Z AUTO 00000KT 10SM CLR 17/14 A3018 RMK AO2 SLP213 T01670144 402220111
Observed
May-27 @ 04:53 UTC
Visibility
Flight Rules
VFR
Cloud Levels
  • Clear skies
Dewpoint
14°C / 57°F
Humidity
83%
Altimeter
30.18" Hg
Pressure
1022.02 hPa
Previous

3 hours ago

KBVY 270353Z AUTO 00000KT 10SM CLR 16/14 A3018 RMK AO2 SLP213 T01610139
Observed
May-27 @ 03:53 UTC
Visibility
Flight Rules
VFR
Cloud Levels
  • Clear skies
Temperature
16°C / 61°F
Dewpoint
14°C / 57°F
Humidity
88%
Altimeter
30.18" Hg
Pressure
1022.02 hPa